createdAt,value
2022-10-21T00:01:00.654Z,82.80
2022-10-21T00:03:28.504Z,83.00
2022-10-21T00:05:57.159Z,83.30
2022-10-21T00:08:25.137Z,83.60
2022-10-21T00:11:00.151Z,84.00
2022-10-21T00:13:31.046Z,83.90
2022-10-21T00:16:10.477Z,84.00
2022-10-21T00:18:42.620Z,83.80
2022-10-21T00:21:19.135Z,83.60
2022-10-21T00:23:49.848Z,83.40
2022-10-21T00:26:19.184Z,83.80
2022-10-21T00:28:46.621Z,84.00
2022-10-21T00:31:16.397Z,84.50
2022-10-21T00:33:44.443Z,84.70
2022-10-21T00:36:15.937Z,84.70
2022-10-21T00:38:48.540Z,84.50
2022-10-21T00:41:20.132Z,84.20
2022-10-21T00:44:12.159Z,84.40
2022-10-21T00:47:07.569Z,84.20
2022-10-21T00:50:02.464Z,83.90
2022-10-21T00:52:34.089Z,84.10
2022-10-21T00:55:05.376Z,84.00
2022-10-21T00:57:35.287Z,84.00
2022-10-21T01:00:06.948Z,83.90
2022-10-21T01:02:34.301Z,84.00
2022-10-21T01:05:04.305Z,83.80
2022-10-21T01:07:35.356Z,83.60
2022-10-21T01:10:07.067Z,83.70
2022-10-21T01:13:05.596Z,83.90
2022-10-21T01:16:50.325Z,84.00
2022-10-21T01:20:07.141Z,84.50
2022-10-21T01:23:29.217Z,83.90
2022-10-21T01:27:00.953Z,83.90
2022-10-21T01:30:02.788Z,83.40
2022-10-21T01:33:33.608Z,83.40
2022-10-21T01:36:37.657Z,83.70
2022-10-21T01:39:36.169Z,83.60
2022-10-21T01:42:43.150Z,83.40
2022-10-21T01:45:43.181Z,83.20
2022-10-21T01:48:25.861Z,83.00
2022-10-21T01:51:00.786Z,83.00
2022-10-21T01:53:48.676Z,82.80
2022-10-21T01:56:17.205Z,82.60
2022-10-21T01:58:47.123Z,82.50
2022-10-21T02:01:16.953Z,82.60
2022-10-21T02:03:51.414Z,83.00
2022-10-21T02:06:18.817Z,82.80
2022-10-21T02:08:47.913Z,82.20
2022-10-21T02:11:18.991Z,82.30
2022-10-21T02:14:01.550Z,82.40
2022-10-21T02:16:39.726Z,82.50
2022-10-21T02:19:18.373Z,82.90
2022-10-21T02:21:51.841Z,82.70
2022-10-21T02:25:01.697Z,83.50
2022-10-21T02:27:29.209Z,83.40
2022-10-21T02:30:00.608Z,83.60
2022-10-21T02:32:56.995Z,83.60
2022-10-21T02:35:43.216Z,84.00
2022-10-21T02:38:43.935Z,84.70
2022-10-21T02:41:14.622Z,85.30
2022-10-21T02:43:56.855Z,85.20
2022-10-21T02:46:25.016Z,85.20
2022-10-21T02:48:53.499Z,85.00
2022-10-21T02:51:21.019Z,84.90
2022-10-21T02:53:48.289Z,84.60
2022-10-21T02:56:15.558Z,84.80
2022-10-21T02:58:42.856Z,84.90
2022-10-21T03:01:10.170Z,85.10
2022-10-21T03:03:37.546Z,85.30
2022-10-21T03:06:04.932Z,85.60
2022-10-21T03:08:32.303Z,85.50
2022-10-21T03:10:59.924Z,85.80
2022-10-21T03:13:28.007Z,85.90
2022-10-21T03:15:55.268Z,86.00
2022-10-21T03:18:22.527Z,86.20
2022-10-21T03:20:51.740Z,86.30
2022-10-21T03:23:20.431Z,86.50
2022-10-21T03:25:47.936Z,87.10
2022-10-21T03:28:16.117Z,87.10
2022-10-21T03:30:43.586Z,87.40
2022-10-21T03:33:10.897Z,87.60
2022-10-21T03:35:38.300Z,87.30
2022-10-21T03:38:05.965Z,87.50
2022-10-21T03:40:33.287Z,86.90
2022-10-21T03:43:00.881Z,87.40
2022-10-21T03:45:28.258Z,87.30
2022-10-21T03:47:55.897Z,87.40
2022-10-21T03:50:26.637Z,87.80
2022-10-21T03:52:55.703Z,88.20
2022-10-21T03:55:25.220Z,88.10
2022-10-21T03:57:54.137Z,88.10
2022-10-21T04:00:22.104Z,88.00
2022-10-21T04:02:51.577Z,88.00
2022-10-21T04:05:18.949Z,87.80
2022-10-21T04:07:50.692Z,87.70
2022-10-21T04:10:20.892Z,88.50
2022-10-21T04:12:50.838Z,88.10
2022-10-21T04:15:18.525Z,88.20
2022-10-21T04:17:47.180Z,88.10
2022-10-21T04:20:14.884Z,88.30
2022-10-21T04:22:42.296Z,88.00
2022-10-21T04:25:10.224Z,88.10
2022-10-21T04:27:37.505Z,88.20
2022-10-21T04:30:06.950Z,88.50
2022-10-21T04:32:34.212Z,88.30
2022-10-21T04:35:01.487Z,88.70
2022-10-21T04:37:29.657Z,88.30
2022-10-21T04:39:57.378Z,88.90
2022-10-21T04:42:24.904Z,88.70
2022-10-21T04:44:52.168Z,88.80
2022-10-21T04:47:19.772Z,88.70
2022-10-21T04:49:47.026Z,88.90
2022-10-21T04:52:14.303Z,89.20
2022-10-21T04:54:41.711Z,89.10
2022-10-21T04:57:09.137Z,88.80
2022-10-21T04:59:36.421Z,89.20
2022-10-21T05:02:03.712Z,89.00
2022-10-21T05:04:30.988Z,89.20
2022-10-21T05:06:58.295Z,89.50
2022-10-21T05:09:25.564Z,89.50
2022-10-21T05:11:52.821Z,89.50
2022-10-21T05:14:22.660Z,89.30
2022-10-21T05:16:50.611Z,89.10
2022-10-21T05:19:18.152Z,89.30
2022-10-21T05:21:47.074Z,89.20
2022-10-21T05:24:17.011Z,89.20
2022-10-21T05:26:44.303Z,89.00
2022-10-21T05:29:11.769Z,88.70
2022-10-21T05:31:39.860Z,88.70
2022-10-21T05:34:07.141Z,89.10
2022-10-21T05:36:34.535Z,89.50
2022-10-21T05:39:01.969Z,89.30
2022-10-21T05:41:29.229Z,89.50
2022-10-21T05:43:56.573Z,90.00
2022-10-21T05:46:24.192Z,90.00
2022-10-21T05:48:51.525Z,90.10
2022-10-21T05:51:25.362Z,90.20
2022-10-21T05:53:56.119Z,90.30
2022-10-21T05:56:23.665Z,90.40
2022-10-21T05:58:51.607Z,90.50
2022-10-21T06:01:18.909Z,90.60
2022-10-21T06:03:46.451Z,90.50
2022-10-21T06:06:13.795Z,90.50
2022-10-21T06:08:41.228Z,90.50
2022-10-21T06:11:19.256Z,90.40
2022-10-21T06:13:47.529Z,90.60
2022-10-21T06:16:17.057Z,90.60
2022-10-21T06:18:44.469Z,90.30
2022-10-21T06:21:12.325Z,90.30
2022-10-21T06:23:39.760Z,90.20
2022-10-21T06:26:15.109Z,90.30
2022-10-21T06:28:45.044Z,90.30
2022-10-21T06:31:20.563Z,90.30
2022-10-21T06:33:48.468Z,90.50
2022-10-21T06:36:16.057Z,90.40
2022-10-21T06:38:45.580Z,90.40
2022-10-21T06:41:14.796Z,90.40
2022-10-21T06:43:43.162Z,90.30
2022-10-21T06:46:15.217Z,90.20
2022-10-21T06:48:42.912Z,90.20
2022-10-21T06:51:23.161Z,90.00
2022-10-21T06:53:59.548Z,90.20
2022-10-21T06:56:29.020Z,90.00
2022-10-21T06:58:58.747Z,89.80
2022-10-21T07:01:48.344Z,90.00
2022-10-21T07:04:21.768Z,89.10
2022-10-21T07:06:50.206Z,89.40
2022-10-21T07:09:17.721Z,89.80
2022-10-21T07:11:45.025Z,89.50
2022-10-21T07:14:12.650Z,90.40
2022-10-21T07:16:41.626Z,90.40
2022-10-21T07:19:10.814Z,90.30
2022-10-21T07:21:39.084Z,90.40
2022-10-21T07:24:06.436Z,90.40
2022-10-21T07:26:35.101Z,90.10
2022-10-21T07:29:02.620Z,90.10
2022-10-21T07:31:36.574Z,90.20
2022-10-21T07:34:09.051Z,90.00
2022-10-21T07:36:42.627Z,89.90
2022-10-21T07:39:16.575Z,89.70
2022-10-21T07:41:53.624Z,89.20
2022-10-21T07:44:25.651Z,88.80
2022-10-21T07:46:54.777Z,88.70
2022-10-21T07:49:24.287Z,88.90
2022-10-21T07:51:51.694Z,86.90
2022-10-21T07:54:20.215Z,87.00
2022-10-21T07:56:52.153Z,86.40
2022-10-21T07:59:22.584Z,86.40
2022-10-21T08:01:50.567Z,86.10
2022-10-21T08:04:22.907Z,86.50
2022-10-21T08:06:50.464Z,86.50
2022-10-21T08:09:18.496Z,86.10
2022-10-21T08:11:46.003Z,86.30
2022-10-21T08:14:15.692Z,86.70
2022-10-21T08:16:44.132Z,86.50
2022-10-21T08:19:21.226Z,86.60
2022-10-21T08:21:48.621Z,86.00
2022-10-21T08:24:16.232Z,85.30
2022-10-21T08:26:43.508Z,85.00
2022-10-21T08:29:10.800Z,85.60
2022-10-21T08:31:38.846Z,85.90
2022-10-21T08:34:06.109Z,86.90
2022-10-21T08:36:33.364Z,86.90
2022-10-21T08:39:00.649Z,86.60
2022-10-21T08:41:30.721Z,86.30
2022-10-21T08:44:14.361Z,86.70
2022-10-21T08:47:26.761Z,87.00
2022-10-21T08:50:15.634Z,86.00
2022-10-21T08:53:04.752Z,86.70
2022-10-21T08:55:40.370Z,86.50
2022-10-21T08:58:23.182Z,87.10
2022-10-21T09:01:32.833Z,87.00
2022-10-21T09:04:42.609Z,87.00
2022-10-21T09:07:32.697Z,86.60
2022-10-21T09:10:43.395Z,87.30
2022-10-21T09:14:07.121Z,86.80
2022-10-21T09:16:54.565Z,87.00
2022-10-21T09:20:07.687Z,86.80
2022-10-21T09:23:30.711Z,87.10
2022-10-21T09:26:17.292Z,86.90
2022-10-21T09:28:48.010Z,86.60
2022-10-21T09:31:21.656Z,87.10
2022-10-21T09:34:02.471Z,87.00
2022-10-21T09:36:47.612Z,86.80
2022-10-21T09:39:46.020Z,86.20
2022-10-21T09:42:35.335Z,86.00
2022-10-21T09:45:01.407Z,86.10
2022-10-21T09:47:28.696Z,85.60
2022-10-21T09:50:08.408Z,86.60
2022-10-21T09:52:38.107Z,86.30
2022-10-21T09:55:13.833Z,86.70
2022-10-21T09:57:58.504Z,86.90
2022-10-21T10:00:50.356Z,86.10
2022-10-21T10:03:42.480Z,86.50
2022-10-21T10:06:10.254Z,86.90
2022-10-21T10:08:47.562Z,86.90
2022-10-21T10:11:21.785Z,87.10
2022-10-21T10:13:53.959Z,87.60
2022-10-21T10:16:33.060Z,87.40
2022-10-21T10:19:27.523Z,87.10
2022-10-21T10:22:16.424Z,87.90
2022-10-21T10:24:45.302Z,87.30
2022-10-21T10:27:23.413Z,87.50
2022-10-21T10:29:56.610Z,88.40
2022-10-21T10:32:31.663Z,87.70
2022-10-21T10:35:07.258Z,87.60
2022-10-21T10:37:37.941Z,88.10
2022-10-21T10:40:09.395Z,87.50
2022-10-21T10:42:46.673Z,87.10
2022-10-21T10:45:20.605Z,87.70
2022-10-21T10:48:21.157Z,87.90
2022-10-21T10:50:50.844Z,88.20
2022-10-21T10:53:38.634Z,88.10
2022-10-21T10:56:06.084Z,87.90
2022-10-21T10:58:42.721Z,88.10
2022-10-21T11:01:24.945Z,88.00
2022-10-21T11:04:34.052Z,88.60
2022-10-21T11:07:49.270Z,88.10
2022-10-21T11:10:38.177Z,88.70
2022-10-21T11:13:21.730Z,89.30
2022-10-21T11:17:00.411Z,89.10
2022-10-21T11:20:00.960Z,89.30
2022-10-21T11:22:58.791Z,89.60
2022-10-21T11:25:58.454Z,89.30
2022-10-21T11:28:49.979Z,89.30
2022-10-21T11:32:19.596Z,88.10
2022-10-21T11:35:17.733Z,88.90
2022-10-21T11:38:49.330Z,88.80
2022-10-21T11:41:54.253Z,89.00
2022-10-21T11:45:06.603Z,89.00
2022-10-21T11:48:01.371Z,88.50
2022-10-21T11:51:16.444Z,88.90
2022-10-21T11:54:37.250Z,89.30
2022-10-21T11:57:57.068Z,89.20
2022-10-21T12:00:27.385Z,89.70
2022-10-21T12:04:08.103Z,90.00
2022-10-21T12:07:01.058Z,89.70
2022-10-21T12:09:56.986Z,89.40
2022-10-21T12:12:40.705Z,89.20
2022-10-21T12:15:27.179Z,88.90
2022-10-21T12:17:55.699Z,89.10
2022-10-21T12:20:27.258Z,89.00
2022-10-21T12:23:06.709Z,89.00
2022-10-21T12:26:16.701Z,88.60
2022-10-21T12:29:02.705Z,88.70
2022-10-21T12:32:26.169Z,88.80
2022-10-21T12:34:55.516Z,88.40
2022-10-21T12:37:51.015Z,88.40
2022-10-21T12:40:39.447Z,88.70
2022-10-21T12:43:23.996Z,88.70
2022-10-21T12:46:11.391Z,88.40
2022-10-21T12:48:48.523Z,88.20
2022-10-21T12:51:30.761Z,88.10
2022-10-21T12:54:16.027Z,87.40
2022-10-21T12:56:50.885Z,87.30
2022-10-21T12:59:42.976Z,87.90
2022-10-21T13:02:29.253Z,88.10
2022-10-21T13:04:58.504Z,88.10
2022-10-21T13:07:34.734Z,88.50
2022-10-21T13:10:01.865Z,88.30
2022-10-21T13:12:32.538Z,87.90
2022-10-21T13:15:22.696Z,88.00
2022-10-21T13:17:56.879Z,88.30
2022-10-21T13:20:24.024Z,88.20
2022-10-21T13:23:01.867Z,87.90
2022-10-21T13:25:35.844Z,88.50
2022-10-21T13:28:15.128Z,88.40
2022-10-21T13:30:48.615Z,88.90
2022-10-21T13:33:26.492Z,88.10
2022-10-21T13:36:14.299Z,87.50
2022-10-21T13:38:55.401Z,88.20
2022-10-21T13:41:30.545Z,89.00
2022-10-21T13:44:05.444Z,89.50
2022-10-21T13:46:43.475Z,89.70
2022-10-21T13:49:32.373Z,89.00
2022-10-21T13:51:59.794Z,88.60
2022-10-21T13:54:35.567Z,89.10
2022-10-21T13:57:09.784Z,89.00
2022-10-21T13:59:37.070Z,88.90
2022-10-21T14:02:05.219Z,88.80
2022-10-21T14:04:39.904Z,88.50
2022-10-21T14:07:19.336Z,88.40
2022-10-21T14:09:59.098Z,87.70
2022-10-21T14:12:43.367Z,87.40
2022-10-21T14:15:24.396Z,87.50
2022-10-21T14:17:58.532Z,87.70
2022-10-21T14:20:36.879Z,87.50
2022-10-21T14:23:15.737Z,88.00
2022-10-21T14:25:43.685Z,87.40
2022-10-21T14:28:13.957Z,87.90
2022-10-21T14:30:43.269Z,88.10
2022-10-21T14:33:19.362Z,87.80
2022-10-21T14:36:25.120Z,88.10
2022-10-21T14:39:18.317Z,88.20
2022-10-21T14:41:48.895Z,88.50
2022-10-21T14:44:26.461Z,88.40
2022-10-21T14:46:54.366Z,88.50
2022-10-21T14:49:36.804Z,88.20
2022-10-21T14:52:20.705Z,88.10
2022-10-21T14:55:10.188Z,87.60
2022-10-21T14:57:45.944Z,87.30
2022-10-21T15:00:33.118Z,86.90
2022-10-21T15:03:01.837Z,87.30
2022-10-21T15:05:48.979Z,87.10
2022-10-21T15:08:21.598Z,87.50
2022-10-21T15:10:58.672Z,87.00
2022-10-21T15:13:26.981Z,86.60
2022-10-21T15:15:57.525Z,86.40
2022-10-21T15:18:44.041Z,86.50
2022-10-21T15:21:37.745Z,86.90
2022-10-21T15:24:06.150Z,86.30
2022-10-21T15:26:40.651Z,86.40
2022-10-21T15:29:28.766Z,86.70
2022-10-21T15:32:00.606Z,86.60
2022-10-21T15:34:29.052Z,86.20
2022-10-21T15:36:56.375Z,86.20
2022-10-21T15:39:23.710Z,86.10
2022-10-21T15:41:55.020Z,86.20
2022-10-21T15:44:31.201Z,86.40
2022-10-21T15:47:03.471Z,86.30
2022-10-21T15:49:41.287Z,85.60
2022-10-21T15:52:09.616Z,85.70
2022-10-21T15:54:36.892Z,85.30
2022-10-21T15:57:20.901Z,85.40
2022-10-21T15:59:48.869Z,85.60
2022-10-21T16:02:18.074Z,85.60
2022-10-21T16:04:45.869Z,85.80
2022-10-21T16:07:29.241Z,85.90
2022-10-21T16:09:57.921Z,85.40
2022-10-21T16:12:25.612Z,85.60
2022-10-21T16:14:53.084Z,85.60
2022-10-21T16:17:21.501Z,85.60
2022-10-21T16:19:48.813Z,85.60
2022-10-21T16:22:23.068Z,85.30
2022-10-21T16:24:50.398Z,85.60
2022-10-21T16:27:31.228Z,85.60
2022-10-21T16:30:39.720Z,85.40
2022-10-21T16:33:07.301Z,85.70
2022-10-21T16:35:34.669Z,85.50
2022-10-21T16:38:02.052Z,85.60
2022-10-21T16:40:35.095Z,85.50
2022-10-21T16:43:02.564Z,85.90
2022-10-21T16:45:32.566Z,85.40
2022-10-21T16:48:04.509Z,85.70
2022-10-21T16:50:44.928Z,85.60
2022-10-21T16:53:17.211Z,86.00
2022-10-21T16:55:44.632Z,86.10
2022-10-21T16:58:11.995Z,85.80
2022-10-21T17:00:39.370Z,85.80
2022-10-21T17:03:06.935Z,86.40
2022-10-21T17:05:35.614Z,86.00
2022-10-21T17:08:03.019Z,86.40
2022-10-21T17:10:30.319Z,86.20
2022-10-21T17:12:59.249Z,86.40
2022-10-21T17:15:29.278Z,86.30
2022-10-21T17:17:56.543Z,86.40
2022-10-21T17:20:23.830Z,86.60
2022-10-21T17:22:51.112Z,86.50
2022-10-21T17:25:18.574Z,86.70
2022-10-21T17:27:46.094Z,86.70
2022-10-21T17:30:13.436Z,86.80
2022-10-21T17:35:28.166Z,87.10
2022-10-21T17:37:55.518Z,87.10
2022-10-21T17:40:27.488Z,87.00
2022-10-21T17:42:54.862Z,87.30
2022-10-21T17:45:22.887Z,86.90
2022-10-21T17:47:54.073Z,87.10
2022-10-21T17:50:25.848Z,86.80
2022-10-21T17:52:55.594Z,86.90
2022-10-21T17:55:22.919Z,87.00
2022-10-21T17:57:50.392Z,86.80
2022-10-21T18:00:18.658Z,86.50
2022-10-21T18:02:46.005Z,86.50
2022-10-21T18:05:13.356Z,86.70
2022-10-21T18:07:40.860Z,86.50
2022-10-21T18:10:09.581Z,86.20
2022-10-21T18:12:37.262Z,86.20
2022-10-21T18:15:06.544Z,86.10
2022-10-21T18:17:34.601Z,86.10
2022-10-21T18:20:01.870Z,86.00
2022-10-21T18:22:29.185Z,86.20
2022-10-21T18:24:56.448Z,86.10
2022-10-21T18:27:24.077Z,86.40
2022-10-21T18:29:51.399Z,86.50
2022-10-21T18:32:18.663Z,86.80
2022-10-21T18:34:45.982Z,86.40
2022-10-21T18:37:13.289Z,86.30
2022-10-21T18:39:40.768Z,86.30
2022-10-21T18:42:08.073Z,86.20
2022-10-21T18:44:35.492Z,86.10
2022-10-21T18:47:02.749Z,86.40
2022-10-21T18:49:30.228Z,86.60
2022-10-21T18:51:57.512Z,86.60
2022-10-21T18:54:24.765Z,86.10
2022-10-21T18:56:52.056Z,86.30
2022-10-21T18:59:19.383Z,86.50
2022-10-21T19:01:46.676Z,86.50
2022-10-21T19:04:14.712Z,86.10
2022-10-21T19:06:46.269Z,86.20
2022-10-21T19:09:22.681Z,86.30
2022-10-21T19:11:50.309Z,86.10
2022-10-21T19:14:17.977Z,86.20
2022-10-21T19:16:48.419Z,86.30
2022-10-21T19:19:18.024Z,86.40
2022-10-21T19:21:45.301Z,86.50
2022-10-21T19:24:12.866Z,86.40
2022-10-21T19:26:44.785Z,86.50
2022-10-21T19:29:19.813Z,86.40
2022-10-21T19:34:35.105Z,86.20
2022-10-21T19:37:02.374Z,86.40
2022-10-21T19:39:29.772Z,86.10
2022-10-21T19:41:57.121Z,86.10
2022-10-21T19:44:24.382Z,86.10
2022-10-21T19:46:52.472Z,85.70
2022-10-21T19:49:20.180Z,86.20
2022-10-21T19:51:48.321Z,87.10
2022-10-21T19:54:15.641Z,86.30
2022-10-21T19:56:42.977Z,86.40
2022-10-21T19:59:11.094Z,86.60
2022-10-21T20:01:38.957Z,87.00
2022-10-21T20:04:06.504Z,86.80
2022-10-21T20:06:38.054Z,86.20
2022-10-21T20:09:12.358Z,86.20
2022-10-21T20:11:41.987Z,86.40
2022-10-21T20:14:13.461Z,86.00
2022-10-21T20:16:43.926Z,85.60
2022-10-21T20:19:12.827Z,85.50
2022-10-21T20:21:41.500Z,83.00
2022-10-21T20:24:12.862Z,83.30
2022-10-21T20:26:40.324Z,83.30
2022-10-21T20:29:07.719Z,82.70
2022-10-21T20:31:35.013Z,84.40
2022-10-21T20:34:04.017Z,83.90
2022-10-21T20:36:32.916Z,83.50
2022-10-21T20:39:03.025Z,82.10
2022-10-21T20:41:37.254Z,83.50
2022-10-21T20:44:13.338Z,83.40
2022-10-21T20:46:40.659Z,82.60
2022-10-21T20:49:10.143Z,82.80
2022-10-21T20:51:42.182Z,83.60
2022-10-21T20:54:18.615Z,84.50
2022-10-21T20:56:46.039Z,84.80
2022-10-21T20:59:16.640Z,86.80
2022-10-21T21:01:48.445Z,86.20
2022-10-21T21:04:20.774Z,87.20
2022-10-21T21:06:51.011Z,87.00
2022-10-21T21:12:09.415Z,87.70
2022-10-21T21:14:36.799Z,87.70
2022-10-21T21:17:04.805Z,88.40
2022-10-21T21:19:33.065Z,88.80
2022-10-21T21:22:00.431Z,88.10
2022-10-21T21:24:27.714Z,88.80
2022-10-21T21:26:55.130Z,89.30
2022-10-21T21:29:22.817Z,89.80
2022-10-21T21:31:50.265Z,88.30
2022-10-21T21:34:17.814Z,88.90
2022-10-21T21:36:45.136Z,89.20
2022-10-21T21:42:00.659Z,89.30
2022-10-21T21:44:28.030Z,89.70
2022-10-21T21:46:55.338Z,89.10
2022-10-21T21:49:22.698Z,89.00
2022-10-21T21:51:49.980Z,89.00
2022-10-21T21:54:17.279Z,88.70
2022-10-21T21:56:45.460Z,88.70
2022-10-21T21:59:13.006Z,89.40
2022-10-21T22:01:40.499Z,89.50
2022-10-21T22:04:07.842Z,89.70
2022-10-21T22:06:38.416Z,89.30
2022-10-21T22:09:10.143Z,89.20
2022-10-21T22:11:39.234Z,89.20
2022-10-21T22:14:06.523Z,89.50
2022-10-21T22:16:35.118Z,89.80
2022-10-21T22:19:02.632Z,89.30
2022-10-21T22:21:31.889Z,88.90
2022-10-21T22:23:59.603Z,88.20
2022-10-21T22:26:27.342Z,88.30
2022-10-21T22:28:55.000Z,87.40
2022-10-21T22:31:28.910Z,87.70
2022-10-21T22:34:00.722Z,87.70
2022-10-21T22:36:30.217Z,87.50
2022-10-21T22:38:57.873Z,87.60
2022-10-21T22:41:26.667Z,87.10
2022-10-21T22:43:54.036Z,86.90
2022-10-21T22:46:33.021Z,87.10
2022-10-21T22:49:04.118Z,87.30
2022-10-21T22:51:33.459Z,87.10
2022-10-21T22:54:01.295Z,87.20
2022-10-21T22:56:29.096Z,87.30
2022-10-21T22:58:57.549Z,87.40
2022-10-21T23:01:30.192Z,87.30
2022-10-21T23:04:04.476Z,87.40
2022-10-21T23:06:34.775Z,87.20
2022-10-21T23:09:05.898Z,87.40
2022-10-21T23:11:33.508Z,87.30
2022-10-21T23:14:03.238Z,87.50
2022-10-21T23:16:36.468Z,87.90
2022-10-21T23:19:06.006Z,88.40
2022-10-21T23:21:33.771Z,88.40
2022-10-21T23:24:01.028Z,88.70
2022-10-21T23:26:28.377Z,88.80
2022-10-21T23:28:55.624Z,88.80
2022-10-21T23:31:22.907Z,89.00
2022-10-21T23:33:52.135Z,89.30
2022-10-21T23:36:19.671Z,89.00
2022-10-21T23:38:47.167Z,89.50
2022-10-21T23:41:14.740Z,89.30
2022-10-21T23:43:42.044Z,89.40
2022-10-21T23:46:09.372Z,89.30
2022-10-21T23:48:36.651Z,89.40
2022-10-21T23:51:04.428Z,89.20
2022-10-21T23:53:31.921Z,88.70
2022-10-21T23:56:00.028Z,88.70
2022-10-21T23:58:27.379Z,89.00
